createdAt,value
2018-04-02T00:00:54.844Z,0.00
2018-04-02T00:01:54.838Z,0.00
2018-04-02T00:02:54.835Z,0.00
2018-04-02T00:03:54.828Z,0.00
2018-04-02T00:04:54.823Z,0.00
2018-04-02T00:05:54.816Z,0.00
2018-04-02T00:06:54.812Z,0.00
2018-04-02T00:07:54.804Z,0.00
2018-04-02T00:08:54.854Z,0.00
2018-04-02T00:09:54.798Z,0.00
2018-04-02T00:10:54.788Z,0.00
2018-04-02T00:11:54.788Z,0.00
2018-04-02T00:12:54.777Z,0.00
2018-04-02T00:13:54.774Z,0.00
2018-04-02T00:14:54.767Z,0.00
2018-04-02T00:15:54.758Z,0.00
2018-04-02T00:16:54.754Z,0.00
2018-04-02T00:17:54.748Z,0.00
2018-04-02T00:18:54.743Z,0.00
2018-04-02T00:19:54.744Z,0.00
2018-04-02T00:20:54.730Z,0.00
2018-04-02T00:21:54.729Z,0.00
2018-04-02T00:22:54.719Z,0.00
2018-04-02T00:23:54.713Z,0.00
2018-04-02T00:24:54.707Z,0.00
2018-04-02T00:25:54.703Z,0.00
2018-04-02T00:26:54.698Z,0.00
2018-04-02T00:27:54.689Z,0.00
2018-04-02T00:28:54.683Z,0.00
2018-04-02T00:29:54.680Z,0.00
2018-04-02T00:30:54.672Z,0.00
2018-04-02T00:31:54.667Z,0.00
2018-04-02T00:32:54.660Z,0.00
2018-04-02T00:33:54.654Z,0.00
2018-04-02T00:34:54.649Z,0.00
2018-04-02T00:35:54.642Z,0.00
2018-04-02T00:36:54.641Z,0.00
2018-04-02T00:37:54.630Z,0.00
2018-04-02T00:38:54.626Z,0.00
2018-04-02T00:39:54.620Z,0.00
2018-04-02T00:40:54.612Z,0.00
2018-04-02T00:41:54.607Z,0.00
2018-04-02T00:42:54.602Z,0.00
2018-04-02T00:43:54.593Z,0.00
2018-04-02T00:44:54.589Z,0.00
2018-04-02T00:45:54.584Z,0.00
2018-04-02T00:46:54.577Z,0.00
2018-04-02T00:47:54.569Z,0.00
2018-04-02T00:48:54.565Z,0.00
2018-04-02T00:49:54.559Z,0.00
2018-04-02T00:50:54.553Z,0.00
2018-04-02T00:51:54.546Z,0.00
2018-04-02T00:52:54.541Z,0.00
2018-04-02T00:53:54.535Z,0.00
2018-04-02T00:54:54.531Z,0.00
2018-04-02T00:55:54.523Z,0.00
2018-04-02T00:56:54.517Z,0.00
2018-04-02T00:57:54.511Z,0.00
2018-04-02T00:58:54.505Z,0.00
2018-04-02T00:59:54.497Z,0.00
2018-04-02T01:00:54.492Z,0.00
2018-04-02T01:01:54.486Z,0.00
2018-04-02T01:02:54.481Z,0.00
2018-04-02T01:03:54.476Z,0.00
2018-04-02T01:04:54.469Z,0.00
2018-04-02T01:05:54.463Z,0.00
2018-04-02T01:06:54.458Z,0.00
2018-04-02T01:07:54.451Z,0.00
2018-04-02T01:08:54.445Z,0.00
2018-04-02T01:09:54.439Z,0.00
2018-04-02T01:10:54.435Z,0.00
2018-04-02T01:11:54.428Z,0.00
2018-04-02T01:12:54.421Z,0.00
2018-04-02T01:13:54.416Z,0.00
2018-04-02T01:14:54.410Z,0.00
2018-04-02T01:15:54.403Z,0.00
2018-04-02T01:16:54.397Z,0.00
2018-04-02T01:17:54.391Z,0.00
2018-04-02T01:18:54.385Z,0.00
2018-04-02T01:19:54.380Z,0.00
2018-04-02T01:20:54.373Z,0.00
2018-04-02T01:21:54.367Z,0.00
2018-04-02T01:22:54.361Z,0.00
2018-04-02T01:23:54.354Z,0.00
2018-04-02T01:24:54.348Z,0.00
2018-04-02T01:25:54.342Z,0.00
2018-04-02T01:26:54.335Z,0.00
2018-04-02T01:27:54.327Z,0.00
2018-04-02T01:28:54.322Z,0.00
2018-04-02T01:29:54.317Z,0.00
2018-04-02T01:30:54.311Z,0.00
2018-04-02T01:31:54.304Z,0.00
2018-04-02T01:32:54.299Z,0.00
2018-04-02T01:33:54.293Z,0.00
2018-04-02T01:34:54.289Z,0.00
2018-04-02T01:35:54.278Z,0.00
2018-04-02T01:36:54.272Z,0.00
2018-04-02T01:37:54.265Z,0.00
2018-04-02T01:38:54.260Z,0.00
2018-04-02T01:39:54.257Z,0.00
2018-04-02T01:40:54.247Z,0.00
2018-04-02T01:41:54.241Z,0.00
2018-04-02T01:42:54.235Z,0.00
2018-04-02T01:43:54.228Z,0.00
2018-04-02T01:44:54.221Z,0.00
2018-04-02T01:45:54.215Z,0.00
2018-04-02T01:46:54.209Z,0.00
2018-04-02T01:47:54.202Z,0.00
2018-04-02T01:48:54.196Z,0.00
2018-04-02T01:49:54.190Z,0.00
2018-04-02T01:50:54.184Z,0.00
2018-04-02T01:51:54.177Z,0.00
2018-04-02T01:52:54.170Z,0.00
2018-04-02T01:53:54.165Z,0.00
2018-04-02T01:54:54.159Z,0.00
2018-04-02T01:55:54.150Z,0.00
2018-04-02T01:56:54.164Z,0.00
2018-04-02T01:57:54.139Z,0.00
2018-04-02T01:58:54.133Z,0.00
2018-04-02T01:59:54.126Z,0.00
2018-04-02T02:00:54.121Z,0.00
2018-04-02T02:01:54.115Z,0.00
2018-04-02T02:02:54.109Z,0.00
2018-04-02T02:03:54.103Z,0.00
2018-04-02T02:04:54.095Z,0.00
2018-04-02T02:05:54.088Z,0.00
2018-04-02T02:06:54.082Z,0.00
2018-04-02T02:07:54.074Z,0.00
2018-04-02T02:08:54.070Z,0.00
2018-04-02T02:09:54.062Z,0.00
2018-04-02T02:10:54.057Z,0.00
2018-04-02T02:11:54.055Z,0.00
2018-04-02T02:12:54.043Z,0.00
2018-04-02T02:13:54.037Z,0.00
2018-04-02T02:14:54.031Z,0.00
2018-04-02T02:15:54.024Z,0.00
2018-04-02T02:16:54.018Z,0.00
2018-04-02T02:17:54.010Z,0.00
2018-04-02T02:18:54.005Z,0.00
2018-04-02T02:19:53.996Z,0.00
2018-04-02T02:20:53.990Z,0.00
2018-04-02T02:21:53.984Z,0.00
2018-04-02T02:22:53.978Z,0.00
2018-04-02T02:23:53.970Z,0.00
2018-04-02T02:24:53.965Z,0.00
2018-04-02T02:25:53.958Z,0.00
2018-04-02T02:26:53.952Z,0.00
2018-04-02T02:27:53.943Z,0.00
2018-04-02T02:28:53.937Z,0.00
2018-04-02T02:29:53.931Z,0.00
2018-04-02T02:30:53.930Z,0.00
2018-04-02T02:31:53.919Z,0.00
2018-04-02T02:32:53.913Z,0.00
2018-04-02T02:33:53.906Z,0.00
2018-04-02T02:34:53.900Z,0.00
2018-04-02T02:35:53.892Z,0.00
2018-04-02T02:36:53.885Z,0.00
2018-04-02T02:37:53.880Z,0.00
2018-04-02T02:38:53.872Z,0.00
2018-04-02T02:39:53.864Z,0.00
2018-04-02T02:40:53.858Z,0.00
2018-04-02T02:41:53.858Z,0.00
2018-04-02T02:42:53.846Z,0.00
2018-04-02T02:43:53.837Z,0.00
2018-04-02T02:44:53.832Z,0.00
2018-04-02T02:45:53.828Z,0.00
2018-04-02T02:46:53.818Z,0.00
2018-04-02T02:47:53.810Z,0.00
2018-04-02T02:48:53.805Z,0.00
2018-04-02T02:49:53.803Z,0.00
2018-04-02T02:50:53.793Z,0.00
2018-04-02T02:51:53.795Z,0.00
2018-04-02T02:52:53.778Z,0.00
2018-04-02T02:53:53.776Z,0.00
2018-04-02T02:54:53.765Z,0.00
2018-04-02T02:55:53.757Z,0.00
2018-04-02T02:56:53.751Z,0.00
2018-04-02T02:57:53.744Z,0.00
2018-04-02T02:58:53.737Z,0.00
2018-04-02T02:59:53.729Z,0.00
2018-04-02T03:00:53.723Z,0.00
2018-04-02T03:01:53.717Z,0.00
2018-04-02T03:02:53.764Z,0.00
2018-04-02T03:03:53.706Z,0.00
2018-04-02T03:04:53.698Z,0.00
2018-04-02T03:05:53.690Z,0.00
2018-04-02T03:06:53.684Z,0.00
2018-04-02T03:07:53.677Z,0.00
2018-04-02T03:08:53.678Z,0.00
2018-04-02T03:09:53.663Z,0.00
2018-04-02T03:10:53.657Z,0.00
2018-04-02T03:11:53.649Z,0.00
2018-04-02T03:12:53.643Z,0.00
2018-04-02T03:13:53.636Z,0.00
2018-04-02T03:14:53.629Z,0.00
2018-04-02T03:15:53.622Z,0.00
2018-04-02T03:16:53.615Z,0.00
2018-04-02T03:17:53.608Z,0.00
2018-04-02T03:18:53.607Z,0.00
2018-04-02T03:19:53.595Z,0.00
2018-04-02T03:20:53.588Z,0.00
2018-04-02T03:21:53.582Z,0.00
2018-04-02T03:22:53.576Z,0.00
2018-04-02T03:23:53.566Z,0.00
2018-04-02T03:24:53.560Z,0.00
2018-04-02T03:25:53.553Z,0.00
2018-04-02T03:26:53.548Z,0.00
2018-04-02T03:27:53.540Z,0.00
2018-04-02T03:28:53.532Z,0.00
2018-04-02T03:29:53.526Z,0.00
2018-04-02T03:30:53.521Z,0.00
2018-04-02T03:31:53.517Z,0.00
2018-04-02T03:32:53.506Z,0.00
2018-04-02T03:33:53.500Z,0.00
2018-04-02T03:34:53.492Z,0.00
2018-04-02T03:35:53.485Z,0.00
2018-04-02T03:36:53.482Z,0.00
2018-04-02T03:37:53.470Z,0.00
2018-04-02T03:38:53.466Z,0.00
2018-04-02T03:39:53.457Z,0.00
2018-04-02T03:40:53.450Z,0.00
2018-04-02T03:41:53.443Z,0.00
2018-04-02T03:42:53.437Z,0.00
2018-04-02T03:43:53.430Z,0.00
2018-04-02T03:44:53.423Z,0.00
2018-04-02T03:45:53.417Z,0.00
2018-04-02T03:46:53.409Z,0.00
2018-04-02T03:47:53.400Z,0.00
2018-04-02T03:48:53.396Z,0.00
2018-04-02T03:49:53.389Z,0.00
2018-04-02T03:50:53.381Z,0.00
2018-04-02T03:51:53.373Z,0.00
2018-04-02T03:52:53.366Z,0.00
2018-04-02T03:53:53.360Z,0.00
2018-04-02T03:54:53.352Z,0.00
2018-04-02T03:55:53.346Z,0.00
2018-04-02T03:56:53.339Z,0.00
2018-04-02T03:57:53.332Z,0.00
2018-04-02T03:58:53.326Z,0.00
2018-04-02T03:59:53.318Z,0.00
2018-04-02T04:00:53.311Z,0.00
2018-04-02T04:01:53.303Z,0.00
2018-04-02T04:02:53.296Z,0.00
2018-04-02T04:03:53.289Z,0.00
2018-04-02T04:04:53.282Z,0.00
2018-04-02T04:05:53.275Z,0.00
2018-04-02T04:06:53.266Z,0.00
2018-04-02T04:07:53.259Z,0.00
2018-04-02T04:08:53.252Z,0.00
2018-04-02T04:09:53.246Z,0.00
2018-04-02T04:10:53.238Z,0.00
2018-04-02T04:11:53.233Z,0.00
2018-04-02T04:12:53.224Z,0.00
2018-04-02T04:13:53.217Z,0.00
2018-04-02T04:14:53.209Z,0.00
2018-04-02T04:15:53.202Z,0.00
2018-04-02T04:16:53.193Z,0.00
2018-04-02T04:17:53.187Z,0.00
2018-04-02T04:18:53.179Z,0.00
2018-04-02T04:19:53.172Z,0.00
2018-04-02T04:20:53.199Z,0.00
2018-04-02T04:21:53.157Z,0.00
2018-04-02T04:22:53.149Z,0.00
2018-04-02T04:23:53.142Z,0.00
2018-04-02T04:24:53.136Z,0.00
2018-04-02T04:25:53.129Z,0.00
2018-04-02T04:26:53.121Z,0.00
2018-04-02T04:27:53.113Z,0.00
2018-04-02T04:28:53.106Z,0.00
2018-04-02T04:29:53.100Z,0.00
2018-04-02T04:30:53.093Z,0.00
2018-04-02T04:31:53.084Z,0.00
2018-04-02T04:32:53.077Z,0.00
2018-04-02T04:33:53.075Z,0.00
2018-04-02T04:34:53.062Z,0.00
2018-04-02T04:35:53.055Z,0.00
2018-04-02T04:36:53.046Z,0.00
2018-04-02T04:37:53.040Z,0.00
2018-04-02T04:38:53.032Z,0.00
2018-04-02T04:39:53.024Z,0.00
2018-04-02T04:40:53.018Z,0.00
2018-04-02T04:41:53.011Z,0.00
2018-04-02T04:42:53.004Z,0.00
2018-04-02T04:43:52.995Z,0.00
2018-04-02T04:44:52.989Z,0.00
2018-04-02T04:45:52.981Z,0.00
2018-04-02T04:46:52.975Z,0.00
2018-04-02T04:47:52.965Z,0.00
2018-04-02T04:48:52.958Z,0.00
2018-04-02T04:49:52.950Z,5.63
2018-04-02T04:50:52.943Z,5.63
2018-04-02T04:51:52.935Z,5.63
2018-04-02T04:52:52.927Z,5.63
2018-04-02T04:53:52.920Z,5.63
2018-04-02T04:54:52.912Z,5.63
2018-04-02T04:55:52.904Z,5.63
2018-04-02T04:56:52.896Z,5.63
2018-04-02T04:57:52.890Z,11.25
2018-04-02T04:58:52.883Z,11.25
2018-04-02T04:59:52.875Z,11.25
2018-04-02T05:00:52.868Z,11.25
2018-04-02T05:01:52.859Z,11.25
2018-04-02T05:02:52.856Z,11.25
2018-04-02T05:03:52.844Z,16.88
2018-04-02T05:04:52.837Z,16.88
2018-04-02T05:05:52.830Z,16.88
2018-04-02T05:06:52.823Z,16.88
2018-04-02T05:07:52.814Z,16.88
2018-04-02T05:08:52.813Z,22.50
2018-04-02T05:09:52.799Z,22.50
2018-04-02T05:10:52.793Z,22.50
2018-04-02T05:11:52.784Z,28.13
2018-04-02T05:12:52.776Z,28.13
2018-04-02T05:13:52.768Z,28.13
2018-04-02T05:14:52.762Z,28.13
2018-04-02T05:15:52.751Z,28.13
2018-04-02T05:16:52.745Z,33.75
2018-04-02T05:17:52.745Z,33.75
2018-04-02T05:18:52.732Z,33.75
2018-04-02T05:19:52.727Z,33.75
2018-04-02T05:20:52.716Z,39.38
2018-04-02T05:21:52.710Z,39.38
2018-04-02T05:22:52.767Z,39.38
2018-04-02T05:23:52.693Z,39.38
2018-04-02T05:24:52.686Z,45.00
2018-04-02T05:25:52.679Z,45.00
2018-04-02T05:26:52.671Z,45.00
2018-04-02T05:27:52.664Z,45.00
2018-04-02T05:28:52.655Z,50.63
2018-04-02T05:29:52.648Z,50.63
2018-04-02T05:30:52.673Z,50.63
2018-04-02T05:31:52.634Z,50.63
2018-04-02T05:32:52.627Z,56.25
2018-04-02T05:33:52.619Z,56.25
2018-04-02T05:34:52.611Z,56.25
2018-04-02T05:35:52.605Z,56.25
2018-04-02T05:36:52.597Z,61.88
2018-04-02T05:37:52.590Z,61.88
2018-04-02T05:38:52.584Z,61.88
2018-04-02T05:39:52.574Z,67.50
2018-04-02T05:40:52.568Z,67.50
2018-04-02T05:41:52.561Z,67.50
2018-04-02T05:42:52.552Z,67.50
2018-04-02T05:43:52.548Z,73.13
2018-04-02T05:44:52.539Z,73.13
2018-04-02T05:45:52.531Z,78.75
2018-04-02T05:46:52.525Z,73.13
2018-04-02T05:47:52.516Z,78.75
2018-04-02T05:48:52.510Z,78.75
2018-04-02T05:49:52.505Z,84.38
2018-04-02T05:50:52.496Z,84.38
2018-04-02T05:51:52.490Z,90.00
2018-04-02T05:52:52.481Z,95.63
2018-04-02T05:53:52.474Z,95.63
2018-04-02T05:54:52.469Z,101.25
2018-04-02T05:55:52.460Z,101.25
2018-04-02T05:56:52.453Z,106.88
2018-04-02T05:57:52.448Z,106.88
2018-04-02T05:58:52.438Z,106.88
2018-04-02T05:59:52.430Z,106.88
2018-04-02T06:00:52.423Z,112.50
2018-04-02T06:01:52.448Z,112.50
2018-04-02T06:02:52.412Z,112.50
2018-04-02T06:03:52.404Z,118.13
2018-04-02T06:04:52.397Z,118.13
2018-04-02T06:05:52.391Z,118.13
2018-04-02T06:06:52.386Z,123.75
2018-04-02T06:07:52.376Z,123.75
2018-04-02T06:08:52.371Z,123.75
2018-04-02T06:09:52.365Z,129.38
2018-04-02T06:10:52.356Z,129.38
2018-04-02T06:11:52.350Z,129.38
2018-04-02T06:12:52.344Z,129.38
2018-04-02T06:13:52.338Z,135.00
2018-04-02T06:14:52.330Z,135.00
2018-04-02T06:15:52.324Z,140.63
2018-04-02T06:16:52.318Z,140.63
2018-04-02T06:17:52.311Z,146.25
2018-04-02T06:18:52.305Z,146.25
2018-04-02T06:19:52.298Z,433.13
2018-04-02T06:20:52.291Z,1445.63
2018-04-02T06:21:52.286Z,2385.00
2018-04-02T06:22:52.284Z,2475.00
2018-04-02T06:23:52.275Z,2430.00
2018-04-02T06:24:52.271Z,2531.25
2018-04-02T06:25:52.267Z,2469.38
2018-04-02T06:26:52.267Z,2283.75
2018-04-02T06:27:52.266Z,1878.75
2018-04-02T06:28:52.264Z,1867.50
2018-04-02T06:29:52.266Z,2351.25
2018-04-02T06:30:52.267Z,2160.00
2018-04-02T06:31:52.269Z,2306.25
2018-04-02T06:32:52.272Z,2379.38
2018-04-02T06:33:52.276Z,2058.75
2018-04-02T06:34:52.280Z,2160.00
2018-04-02T06:35:52.285Z,2542.50
2018-04-02T06:36:52.298Z,2463.75
2018-04-02T06:37:52.293Z,2671.88
2018-04-02T06:38:52.300Z,2722.50
2018-04-02T06:39:52.305Z,2120.63
2018-04-02T06:40:52.312Z,1721.25
2018-04-02T06:41:52.319Z,1890.00
2018-04-02T06:42:52.324Z,2345.63
2018-04-02T06:43:52.332Z,3144.38
2018-04-02T06:44:52.337Z,2823.75
2018-04-02T06:45:52.346Z,1963.13
2018-04-02T06:46:52.355Z,1946.25
2018-04-02T06:47:52.361Z,2615.63
2018-04-02T06:48:52.369Z,2475.00
2018-04-02T06:49:52.377Z,2188.13
2018-04-02T06:50:52.386Z,2176.88
2018-04-02T06:51:52.392Z,2075.63
2018-04-02T06:52:52.403Z,1946.25
2018-04-02T06:53:52.412Z,1434.38
2018-04-02T06:54:52.420Z,1648.13
2018-04-02T06:55:52.426Z,2047.50
2018-04-02T06:56:52.441Z,2176.88
2018-04-02T06:57:52.446Z,2345.63
2018-04-02T06:58:52.456Z,2761.88
2018-04-02T06:59:52.466Z,2649.38
2018-04-02T07:00:52.473Z,2767.50
2018-04-02T07:01:52.483Z,2430.00
2018-04-02T07:02:52.492Z,2660.63
2018-04-02T07:03:52.502Z,2148.75
2018-04-02T07:04:52.511Z,1912.50
2018-04-02T07:05:52.525Z,1968.75
2018-04-02T07:06:52.531Z,1693.13
2018-04-02T07:07:52.541Z,2396.25
2018-04-02T07:08:52.550Z,2986.88
2018-04-02T07:09:52.561Z,2936.25
2018-04-02T07:10:52.573Z,2531.25
2018-04-02T07:11:52.580Z,2345.63
2018-04-02T07:12:52.591Z,2508.75
2018-04-02T07:13:52.603Z,2671.88
2018-04-02T07:14:52.612Z,2941.88
2018-04-02T07:15:52.623Z,3155.63
2018-04-02T07:16:52.633Z,3240.00
2018-04-02T07:17:52.646Z,3020.63
2018-04-02T07:18:52.659Z,2531.25
2018-04-02T07:19:52.670Z,2700.00
2018-04-02T07:20:52.682Z,2784.38
2018-04-02T07:21:52.694Z,2536.88
2018-04-02T07:22:52.707Z,2418.75
2018-04-02T07:23:53.033Z,2075.63
2018-04-02T07:24:52.729Z,2385.00
2018-04-02T07:25:52.743Z,3678.75
2018-04-02T07:26:52.757Z,3375.00
2018-04-02T07:27:52.766Z,2728.13
2018-04-02T07:28:52.777Z,1355.63
2018-04-02T07:29:52.790Z,421.88
2018-04-02T07:30:52.801Z,461.25
2018-04-02T07:31:52.815Z,928.13
2018-04-02T07:32:52.823Z,1141.88
2018-04-02T07:33:52.832Z,1681.88
2018-04-02T07:34:52.843Z,2115.00
2018-04-02T07:35:52.854Z,1620.00
2018-04-02T07:36:52.864Z,1783.13
2018-04-02T07:37:52.874Z,1614.38
2018-04-02T07:38:52.883Z,1681.88
2018-04-02T07:39:52.892Z,1276.88
2018-04-02T07:40:52.902Z,945.00
2018-04-02T07:41:52.913Z,1209.38
2018-04-02T07:42:52.922Z,1456.88
2018-04-02T07:43:52.929Z,1344.38
2018-04-02T07:44:52.939Z,1901.25
2018-04-02T07:45:52.947Z,2503.13
2018-04-02T07:46:52.956Z,2418.75
2018-04-02T07:47:52.965Z,2126.25
2018-04-02T07:48:52.975Z,2137.50
2018-04-02T07:49:52.984Z,2317.50
2018-04-02T07:50:52.994Z,2379.38
2018-04-02T07:51:53.004Z,2936.25
2018-04-02T07:52:53.014Z,3110.63
2018-04-02T07:53:53.024Z,2660.63
2018-04-02T07:54:53.035Z,2283.75
2018-04-02T07:55:53.046Z,2289.38
2018-04-02T07:56:53.057Z,2323.13
2018-04-02T07:57:53.066Z,2227.50
2018-04-02T07:58:53.076Z,2216.25
2018-04-02T07:59:53.089Z,1805.63
2018-04-02T08:00:53.099Z,1580.63
2018-04-02T08:01:53.112Z,1665.00
2018-04-02T08:02:53.254Z,1676.25
2018-04-02T08:03:53.131Z,1614.38
2018-04-02T08:04:53.142Z,2317.50
2018-04-02T08:05:53.154Z,2233.13
2018-04-02T08:06:53.166Z,1968.75
2018-04-02T08:07:53.174Z,1906.88
2018-04-02T08:08:53.185Z,2047.50
2018-04-02T08:09:53.195Z,2098.13
2018-04-02T08:10:53.208Z,2216.25
2018-04-02T08:11:53.224Z,2818.13
2018-04-02T08:12:53.229Z,2936.25
2018-04-02T08:13:53.243Z,2851.88
2018-04-02T08:14:53.249Z,1996.88
2018-04-02T08:15:53.277Z,1890.00
2018-04-02T08:16:53.274Z,2306.25
2018-04-02T08:17:53.304Z,2311.88
2018-04-02T08:18:53.296Z,2160.00
2018-04-02T08:19:53.307Z,1614.38
2018-04-02T08:20:53.317Z,2075.63
2018-04-02T08:21:53.329Z,2019.38
2018-04-02T08:22:53.338Z,1558.13
2018-04-02T08:23:53.350Z,1260.00
2018-04-02T08:24:53.359Z,1192.50
2018-04-02T08:25:53.374Z,1878.75
2018-04-02T08:26:53.386Z,2289.38
2018-04-02T08:27:53.390Z,1591.88
2018-04-02T08:28:53.400Z,1175.63
2018-04-02T08:29:53.411Z,1501.88
2018-04-02T08:30:53.419Z,1816.88
2018-04-02T08:31:53.429Z,1929.38
2018-04-02T08:32:53.438Z,1991.25
2018-04-02T08:33:53.448Z,1558.13
2018-04-02T08:34:53.457Z,1333.13
2018-04-02T08:35:53.467Z,1389.38
2018-04-02T08:36:53.479Z,1215.00
2018-04-02T08:37:53.487Z,1490.63
2018-04-02T08:38:53.580Z,1125.00
2018-04-02T08:39:53.504Z,928.13
2018-04-02T08:40:53.513Z,1102.50
2018-04-02T08:41:53.522Z,1243.13
2018-04-02T08:42:53.530Z,866.25
2018-04-02T08:43:53.538Z,871.88
2018-04-02T08:44:53.548Z,703.13
2018-04-02T08:45:53.555Z,315.00
2018-04-02T08:46:53.565Z,309.38
2018-04-02T08:47:53.571Z,466.88
2018-04-02T08:48:53.580Z,810.00
2018-04-02T08:49:53.586Z,765.00
2018-04-02T08:50:53.594Z,365.63
2018-04-02T08:51:53.601Z,765.00
2018-04-02T08:52:53.609Z,1119.38
2018-04-02T08:53:53.613Z,1237.50
2018-04-02T08:54:53.621Z,1299.38
2018-04-02T08:55:53.627Z,1175.63
2018-04-02T08:56:53.634Z,1141.88
2018-04-02T08:57:53.644Z,1164.38
2018-04-02T08:58:53.647Z,1136.25
2018-04-02T08:59:53.656Z,1063.13
2018-04-02T09:00:53.660Z,787.50
2018-04-02T09:01:53.669Z,776.25
2018-04-02T09:02:53.674Z,1170.00
2018-04-02T09:03:53.681Z,1231.88
2018-04-02T09:04:53.695Z,1108.13
2018-04-02T09:05:53.694Z,1040.63
2018-04-02T09:06:53.702Z,1552.50
2018-04-02T09:07:53.708Z,1074.38
2018-04-02T09:08:53.715Z,1113.75
2018-04-02T09:09:53.720Z,1192.50
2018-04-02T09:10:53.728Z,1063.13
2018-04-02T09:11:53.734Z,1226.25
2018-04-02T09:12:53.741Z,1074.38
2018-04-02T09:13:53.753Z,1136.25
2018-04-02T09:14:53.754Z,1237.50
2018-04-02T09:15:53.765Z,1378.13
2018-04-02T09:16:53.770Z,1755.00
2018-04-02T09:17:53.778Z,2081.25
2018-04-02T09:18:53.783Z,2081.25
2018-04-02T09:19:53.790Z,2025.00
2018-04-02T09:20:53.799Z,1890.00
2018-04-02T09:21:53.807Z,2098.13
2018-04-02T09:22:53.817Z,2418.75
2018-04-02T09:23:53.824Z,2340.00
2018-04-02T09:24:53.836Z,2553.75
2018-04-02T09:25:53.843Z,2520.00
2018-04-02T09:26:53.852Z,2221.88
2018-04-02T09:27:53.862Z,2244.38
2018-04-02T09:28:53.872Z,2165.63
2018-04-02T09:29:53.885Z,1800.00
2018-04-02T09:30:53.895Z,1428.75
2018-04-02T09:31:53.907Z,1153.13
2018-04-02T09:32:53.919Z,1102.50
2018-04-02T09:33:53.931Z,945.00
2018-04-02T09:34:53.942Z,877.50
2018-04-02T09:35:53.954Z,1029.38
2018-04-02T09:36:53.966Z,1006.88
2018-04-02T09:37:53.978Z,945.00
2018-04-02T09:38:53.988Z,838.13
2018-04-02T09:39:54.000Z,748.13
2018-04-02T09:40:54.011Z,725.63
2018-04-02T09:41:54.024Z,770.63
2018-04-02T09:42:54.033Z,781.88
2018-04-02T09:43:54.044Z,736.88
2018-04-02T09:44:54.055Z,725.63
2018-04-02T09:45:54.066Z,658.13
2018-04-02T09:46:54.076Z,675.00
2018-04-02T09:47:54.087Z,1029.38
2018-04-02T09:48:54.095Z,1181.25
2018-04-02T09:49:54.109Z,1215.00
2018-04-02T09:50:54.116Z,1282.50
2018-04-02T09:51:54.127Z,1378.13
2018-04-02T09:52:54.134Z,1462.50
2018-04-02T09:53:54.144Z,1580.63
2018-04-02T09:54:54.157Z,1760.63
2018-04-02T09:55:54.165Z,1591.88
2018-04-02T09:56:54.174Z,1406.25
2018-04-02T09:57:54.184Z,1158.75
2018-04-02T09:58:54.205Z,1265.63
2018-04-02T09:59:54.205Z,1603.13
2018-04-02T10:00:54.214Z,1603.13
2018-04-02T10:01:54.225Z,1237.50
2018-04-02T10:02:54.236Z,1102.50
2018-04-02T10:03:54.243Z,1350.00
2018-04-02T10:04:54.338Z,1620.00
2018-04-02T10:05:54.263Z,1642.50
2018-04-02T10:06:54.275Z,1749.38
2018-04-02T10:07:54.283Z,1873.13
2018-04-02T10:08:54.292Z,1822.50
2018-04-02T10:09:54.363Z,1794.38
2018-04-02T10:10:54.317Z,1777.50
2018-04-02T10:11:54.322Z,1693.13
2018-04-02T10:12:54.332Z,1738.13
2018-04-02T10:13:54.343Z,1721.25
2018-04-02T10:14:54.353Z,1648.13
2018-04-02T10:15:54.362Z,1676.25
2018-04-02T10:16:54.374Z,1732.50
2018-04-02T10:17:54.385Z,1749.38
2018-04-02T10:18:54.397Z,1766.25
2018-04-02T10:19:54.406Z,1800.00
2018-04-02T10:20:54.420Z,1681.88
2018-04-02T10:21:54.431Z,1676.25
2018-04-02T10:22:54.443Z,1580.63
2018-04-02T10:23:54.466Z,1518.75
2018-04-02T10:24:54.465Z,1524.38
2018-04-02T10:25:54.476Z,1451.25
2018-04-02T10:26:54.488Z,1456.88
2018-04-02T10:27:54.497Z,1490.63
2018-04-02T10:28:54.510Z,1518.75
2018-04-02T10:29:54.546Z,1530.00
2018-04-02T10:30:54.535Z,1485.00
2018-04-02T10:31:54.546Z,1440.00
2018-04-02T10:32:54.560Z,1366.88
2018-04-02T10:33:54.569Z,1428.75
2018-04-02T10:34:54.581Z,1395.00
2018-04-02T10:35:54.597Z,1383.75
2018-04-02T10:36:54.603Z,1299.38
2018-04-02T10:37:54.614Z,1299.38
2018-04-02T10:38:54.630Z,1338.75
2018-04-02T10:39:54.639Z,1327.50
2018-04-02T10:40:54.651Z,1299.38
2018-04-02T10:41:54.663Z,1310.63
2018-04-02T10:42:54.675Z,1293.75
2018-04-02T10:43:54.690Z,1254.38
2018-04-02T10:44:54.699Z,1220.63
2018-04-02T10:45:54.711Z,1192.50
2018-04-02T10:46:54.724Z,1186.88
2018-04-02T10:47:54.735Z,1130.63
2018-04-02T10:48:54.747Z,1051.88
2018-04-02T10:49:54.759Z,1181.25
2018-04-02T10:50:54.771Z,1164.38
2018-04-02T10:51:54.788Z,1164.38
2018-04-02T10:52:54.794Z,1164.38
2018-04-02T10:53:54.867Z,1153.13
2018-04-02T10:54:54.817Z,1125.00
2018-04-02T10:55:54.830Z,1006.88
2018-04-02T10:56:54.842Z,1035.00
2018-04-02T10:57:54.855Z,961.88
2018-04-02T10:58:54.866Z,1091.25
2018-04-02T10:59:54.877Z,1057.50
2018-04-02T11:00:54.889Z,1063.13
2018-04-02T11:01:54.901Z,1046.25
2018-04-02T11:02:54.913Z,1063.13
2018-04-02T11:03:54.923Z,1046.25
2018-04-02T11:04:54.935Z,1023.75
2018-04-02T11:05:54.947Z,933.75
2018-04-02T11:06:54.960Z,894.38
2018-04-02T11:07:54.969Z,956.25
2018-04-02T11:08:54.980Z,939.38
2018-04-02T11:09:54.992Z,978.75
2018-04-02T11:10:55.003Z,888.75
2018-04-02T11:11:55.015Z,877.50
2018-04-02T11:12:55.026Z,787.50
2018-04-02T11:13:55.037Z,562.50
2018-04-02T11:14:55.049Z,787.50
2018-04-02T11:15:55.059Z,871.88
2018-04-02T11:16:55.071Z,855.00
2018-04-02T11:17:55.092Z,849.38
2018-04-02T11:18:55.094Z,832.50
2018-04-02T11:19:55.104Z,821.25
2018-04-02T11:20:55.115Z,815.63
2018-04-02T11:21:55.126Z,810.00
2018-04-02T11:22:55.137Z,798.75
2018-04-02T11:23:55.149Z,821.25
2018-04-02T11:24:55.159Z,832.50
2018-04-02T11:25:55.171Z,843.75
2018-04-02T11:26:55.181Z,798.75
2018-04-02T11:27:55.193Z,826.88
2018-04-02T11:28:55.212Z,787.50
2018-04-02T11:29:55.214Z,646.88
2018-04-02T11:30:55.227Z,669.38
2018-04-02T11:31:55.237Z,742.50
2018-04-02T11:32:55.248Z,720.00
2018-04-02T11:33:55.260Z,781.88
2018-04-02T11:34:55.271Z,793.13
2018-04-02T11:35:55.297Z,815.63
2018-04-02T11:36:55.292Z,798.75
2018-04-02T11:37:55.302Z,765.00
2018-04-02T11:38:55.314Z,731.25
2018-04-02T11:39:55.324Z,697.50
2018-04-02T11:40:55.334Z,641.25
2018-04-02T11:41:55.345Z,579.38
2018-04-02T11:42:55.386Z,562.50
2018-04-02T11:43:55.367Z,540.00
2018-04-02T11:44:55.380Z,523.13
2018-04-02T11:45:55.390Z,517.50
2018-04-02T11:46:55.402Z,545.63
2018-04-02T11:47:55.712Z,545.63
2018-04-02T11:48:55.421Z,568.13
2018-04-02T11:49:55.433Z,624.38
2018-04-02T11:50:55.444Z,675.00
2018-04-02T11:51:55.453Z,753.75
2018-04-02T11:52:55.464Z,703.13
2018-04-02T11:53:55.474Z,635.63
2018-04-02T11:54:55.485Z,877.50
2018-04-02T11:55:55.495Z,804.38
2018-04-02T11:56:55.505Z,855.00
2018-04-02T11:57:55.515Z,866.25
2018-04-02T11:58:55.524Z,860.63
2018-04-02T11:59:55.535Z,866.25
2018-04-02T12:00:55.548Z,838.13
2018-04-02T12:01:55.557Z,849.38
2018-04-02T12:02:55.567Z,871.88
2018-04-02T12:03:55.625Z,922.50
2018-04-02T12:04:55.586Z,984.38
2018-04-02T12:05:55.597Z,961.88
2018-04-02T12:06:55.610Z,973.13
2018-04-02T12:07:55.618Z,928.13
2018-04-02T12:08:55.629Z,933.75
2018-04-02T12:09:55.641Z,916.88
2018-04-02T12:10:55.650Z,905.63
2018-04-02T12:11:55.661Z,883.13
2018-04-02T12:12:55.677Z,911.25
2018-04-02T12:13:55.684Z,911.25
2018-04-02T12:14:55.694Z,916.88
2018-04-02T12:15:55.702Z,956.25
2018-04-02T12:16:55.713Z,956.25
2018-04-02T12:17:55.724Z,916.88
2018-04-02T12:18:55.735Z,900.00
2018-04-02T12:19:55.746Z,911.25
2018-04-02T12:20:55.825Z,900.00
2018-04-02T12:21:55.765Z,928.13
2018-04-02T12:22:55.776Z,905.63
2018-04-02T12:23:55.785Z,905.63
2018-04-02T12:24:55.795Z,905.63
2018-04-02T12:25:55.807Z,883.13
2018-04-02T12:26:55.818Z,849.38
2018-04-02T12:27:55.826Z,838.13
2018-04-02T12:28:55.841Z,838.13
2018-04-02T12:29:55.848Z,849.38
2018-04-02T12:30:55.857Z,855.00
2018-04-02T12:31:55.868Z,838.13
2018-04-02T12:32:55.878Z,826.88
2018-04-02T12:33:55.888Z,860.63
2018-04-02T12:34:55.899Z,860.63
2018-04-02T12:35:55.909Z,843.75
2018-04-02T12:36:55.918Z,911.25
2018-04-02T12:37:55.932Z,860.63
2018-04-02T12:38:55.940Z,916.88
2018-04-02T12:39:55.949Z,849.38
2018-04-02T12:40:55.959Z,810.00